Time;durP1;ratioP1;P1;durP2;ratioP2;P2;SDS_P1;SDS_P2;PMS_P1;PMS_P2;Temp;Humidity;BMP_temperature;BMP_pressure;BME280_temperature;BME280_humidity;BME280_pressure;Samples;Min_cycle;Max_cycle;Signal;HPM_P1;HPM_P2
2023/03/28 00:01:01;;;;;;;;;;;;;;;18.86;42.41;98982.70;101757;1315;62146;-83
2023/03/28 00:03:28;;;;;;;;;;;;;;;18.85;42.40;98988.11;101637;1316;76668;-83
2023/03/28 00:05:59;;;;;;;;;;;;;;;18.85;42.41;98985.83;101780;1312;62373;-83
2023/03/28 00:08:27;;;;;;;;;;;;;;;18.85;42.45;98992.17;101803;1314;62847;-83
2023/03/28 00:11:18;;;;;;;;;;;;;;;18.85;42.35;98990.27;101694;1314;73378;-84
2023/03/28 00:13:45;;;;;;;;;;;;;;;18.85;42.37;98997.23;101759;1312;76303;-84
2023/03/28 00:16:13;;;;;;;;;;;;;;;18.85;42.36;98995.27;102062;1317;62158;-82
2023/03/28 00:18:39;;;;;;;;;;;;;;;18.84;42.39;98994.56;101990;1311;62300;-83
2023/03/28 00:21:22;;;;;;;;;;;;;;;18.85;42.31;98987.98;101462;1317;62909;-83
2023/03/28 00:23:51;;;;;;;;;;;;;;;18.84;42.32;98995.66;101639;1317;76179;-82
2023/03/28 00:26:17;;;;;;;;;;;;;;;18.85;42.33;98992.44;101753;1317;62293;-82
2023/03/28 00:28:44;;;;;;;;;;;;;;;18.84;42.29;98990.13;101683;1312;62324;-82
2023/03/28 00:31:10;;;;;;;;;;;;;;;18.84;42.25;98992.30;101919;1314;73687;-82
2023/03/28 00:33:36;;;;;;;;;;;;;;;18.84;42.24;98988.95;101955;1314;62338;-83
2023/03/28 00:36:01;;;;;;;;;;;;;;;18.84;42.21;98987.52;101968;1309;63111;-83
2023/03/28 00:38:27;;;;;;;;;;;;;;;18.84;42.18;98990.58;101866;1308;62268;-82
2023/03/28 00:40:56;;;;;;;;;;;;;;;18.83;42.20;98991.83;101906;1314;62318;-84
2023/03/28 00:43:34;;;;;;;;;;;;;;;18.83;42.20;98997.00;101996;1308;62344;-82
2023/03/28 00:46:00;;;;;;;;;;;;;;;18.83;42.18;99006.81;101869;1313;62009;-84
2023/03/28 00:48:25;;;;;;;;;;;;;;;18.83;42.13;99006.64;102031;1309;62264;-83
2023/03/28 00:50:52;;;;;;;;;;;;;;;18.83;42.17;99009.48;101745;1317;62241;-83
2023/03/28 00:53:18;;;;;;;;;;;;;;;18.83;42.09;99011.48;101938;1313;62244;-83
2023/03/28 00:55:48;;;;;;;;;;;;;;;18.83;42.00;99013.82;101879;1314;62228;-84
2023/03/28 00:58:15;;;;;;;;;;;;;;;18.82;42.05;99015.99;101973;1311;63274;-83
2023/03/28 01:00:40;;;;;;;;;;;;;;;18.82;42.01;99012.80;101872;1313;62681;-83
2023/03/28 01:03:06;;;;;;;;;;;;;;;18.82;42.10;99008.89;101908;1309;62258;-83
2023/03/28 01:05:33;;;;;;;;;;;;;;;18.82;41.94;99010.16;101834;1309;62238;-83
2023/03/28 01:08:17;;;;;;;;;;;;;;;18.81;42.00;99010.59;101960;1308;62214;-83
2023/03/28 01:10:43;;;;;;;;;;;;;;;18.81;42.00;99005.55;101924;1314;72995;-83
2023/03/28 01:13:08;;;;;;;;;;;;;;;18.81;41.90;99006.27;101950;1308;62356;-84
2023/03/28 01:15:34;;;;;;;;;;;;;;;18.81;41.88;99003.27;101880;1310;62293;-82
2023/03/28 01:18:01;;;;;;;;;;;;;;;18.81;41.86;99000.29;101880;1308;62184;-84
2023/03/28 01:20:31;;;;;;;;;;;;;;;18.81;41.88;99003.33;101770;1314;62052;-80
2023/03/28 01:22:57;;;;;;;;;;;;;;;18.80;41.84;99004.06;101877;1308;76445;-83
2023/03/28 01:25:43;;;;;;;;;;;;;;;18.81;41.85;99013.48;101909;1308;62247;-83
2023/03/28 01:28:08;;;;;;;;;;;;;;;18.80;41.86;99014.09;101953;1308;62630;-83
2023/03/28 01:30:53;;;;;;;;;;;;;;;18.80;41.82;99015.17;101933;1311;62948;-82
2023/03/28 01:33:39;;;;;;;;;;;;;;;18.79;41.79;99013.98;101851;1314;75280;-83
2023/03/28 01:36:23;;;;;;;;;;;;;;;18.79;41.70;99013.95;101513;1315;62578;-82
2023/03/28 01:38:58;;;;;;;;;;;;;;;18.79;41.69;99017.91;101473;1314;62511;-83
2023/03/28 01:41:32;;;;;;;;;;;;;;;18.79;41.74;99018.13;101362;1318;73774;-83
2023/03/28 01:44:10;;;;;;;;;;;;;;;18.79;41.66;99022.39;101408;1315;75427;-84
2023/03/28 01:46:37;;;;;;;;;;;;;;;18.79;41.66;99028.27;101472;1316;62327;-83
2023/03/28 01:49:02;;;;;;;;;;;;;;;18.78;41.62;99028.85;101367;1315;62315;-84
2023/03/28 01:52:00;;;;;;;;;;;;;;;18.78;41.64;99030.47;101438;1314;62258;-83
2023/03/28 01:54:28;;;;;;;;;;;;;;;18.77;41.60;99036.21;100895;1322;76640;-83
2023/03/28 01:57:12;;;;;;;;;;;;;;;18.78;41.58;99039.02;100947;1326;62287;-83
2023/03/28 01:59:41;;;;;;;;;;;;;;;18.78;41.54;99042.95;100947;1320;62175;-83
2023/03/28 02:02:08;;;;;;;;;;;;;;;18.78;41.52;99046.67;101010;1320;72872;-83
2023/03/28 02:04:35;;;;;;;;;;;;;;;18.78;41.54;99049.56;100925;1321;76379;-82
2023/03/28 02:07:00;;;;;;;;;;;;;;;18.77;41.49;99047.30;100898;1322;63235;-82
2023/03/28 02:09:27;;;;;;;;;;;;;;;18.76;41.44;99054.43;100844;1324;62134;-82
2023/03/28 02:11:55;;;;;;;;;;;;;;;18.77;41.38;99057.27;100974;1321;63013;-82
2023/03/28 02:14:21;;;;;;;;;;;;;;;18.76;41.35;99056.97;101107;1317;75353;-83
2023/03/28 02:16:48;;;;;;;;;;;;;;;18.76;41.39;99054.16;101128;1317;62164;-82
2023/03/28 02:19:14;;;;;;;;;;;;;;;18.76;41.32;99054.32;101181;1317;62204;-82
2023/03/28 02:21:42;;;;;;;;;;;;;;;18.76;41.27;99053.98;101248;1320;62278;-84
2023/03/28 02:24:08;;;;;;;;;;;;;;;18.76;41.31;99051.67;101328;1322;75248;-82
2023/03/28 02:26:34;;;;;;;;;;;;;;;18.75;41.30;99050.98;101154;1317;62206;-83
2023/03/28 02:29:00;;;;;;;;;;;;;;;18.75;41.23;99058.50;101223;1316;62343;-83
2023/03/28 02:31:27;;;;;;;;;;;;;;;18.75;41.27;99056.37;101831;1308;63404;-83
2023/03/28 02:33:53;;;;;;;;;;;;;;;18.75;41.14;99067.63;101812;1308;62198;-83
2023/03/28 02:36:29;;;;;;;;;;;;;;;18.74;41.14;99069.60;102039;1308;62363;-82
2023/03/28 02:39:06;;;;;;;;;;;;;;;18.75;41.06;99074.59;102208;1308;62873;-83
2023/03/28 02:41:38;;;;;;;;;;;;;;;18.73;41.08;99077.17;101894;1314;72540;-83
2023/03/28 02:44:09;;;;;;;;;;;;;;;18.74;41.07;99081.23;101940;1308;75225;-84
2023/03/28 02:46:37;;;;;;;;;;;;;;;18.74;41.06;99084.23;101964;1308;62292;-83
2023/03/28 02:49:29;;;;;;;;;;;;;;;18.73;40.98;99086.27;101983;1308;62155;-83
2023/03/28 02:52:13;;;;;;;;;;;;;;;18.73;41.03;99091.30;101230;1317;72442;-84
2023/03/28 02:54:42;;;;;;;;;;;;;;;18.73;40.97;99096.27;101278;1316;76538;-82
2023/03/28 02:57:17;;;;;;;;;;;;;;;18.73;40.96;99102.86;101396;1316;62254;-84
2023/03/28 02:59:46;;;;;;;;;;;;;;;18.73;40.94;99110.73;101289;1317;62150;-83
2023/03/28 03:02:20;;;;;;;;;;;;;;;18.73;40.90;99113.94;101290;1318;72592;-83
2023/03/28 03:04:46;;;;;;;;;;;;;;;18.73;40.92;99116.98;101379;1320;75077;-84
2023/03/28 03:07:12;;;;;;;;;;;;;;;18.73;40.84;99116.98;101323;1319;62318;-84
2023/03/28 03:09:41;;;;;;;;;;;;;;;18.72;40.85;99117.54;101333;1314;62207;-83
2023/03/28 03:12:07;;;;;;;;;;;;;;;18.73;40.83;99121.09;101394;1317;62277;-82
2023/03/28 03:14:33;;;;;;;;;;;;;;;18.73;40.70;99123.05;101338;1316;62274;-83
2023/03/28 03:16:59;;;;;;;;;;;;;;;18.72;40.75;99132.34;101181;1316;62284;-84
2023/03/28 03:19:25;;;;;;;;;;;;;;;18.72;40.68;99132.39;101213;1314;62206;-84
2023/03/28 03:21:52;;;;;;;;;;;;;;;18.72;40.63;99137.37;101170;1319;62349;-82
2023/03/28 03:24:19;;;;;;;;;;;;;;;18.71;40.74;99138.48;101331;1314;62402;-83
2023/03/28 03:26:45;;;;;;;;;;;;;;;18.71;40.59;99143.48;101203;1315;63161;-83
2023/03/28 03:29:13;;;;;;;;;;;;;;;18.71;40.64;99147.92;101417;1309;62177;-83
2023/03/28 03:31:38;;;;;;;;;;;;;;;18.71;40.55;99150.60;101847;1310;62242;-83
2023/03/28 03:34:04;;;;;;;;;;;;;;;18.71;40.61;99152.94;101943;1308;63397;-83
2023/03/28 03:36:30;;;;;;;;;;;;;;;18.71;40.58;99154.23;101798;1308;62120;-82
2023/03/28 03:38:59;;;;;;;;;;;;;;;18.71;40.50;99156.54;101868;1308;62161;-82
2023/03/28 03:41:27;;;;;;;;;;;;;;;18.71;40.42;99159.73;101948;1311;73547;-82
2023/03/28 03:43:53;;;;;;;;;;;;;;;18.70;40.46;99164.06;101882;1308;76355;-84
2023/03/28 03:46:18;;;;;;;;;;;;;;;18.70;40.41;99164.46;101898;1308;62334;-82
2023/03/28 03:48:44;;;;;;;;;;;;;;;18.70;40.42;99165.70;101873;1308;62156;-84
2023/03/28 03:51:10;;;;;;;;;;;;;;;18.70;40.36;99169.45;101855;1308;63725;-84
2023/03/28 03:53:36;;;;;;;;;;;;;;;18.69;40.30;99174.48;101875;1314;62277;-84
2023/03/28 03:56:01;;;;;;;;;;;;;;;18.69;40.30;99181.41;102025;1311;62222;-83
2023/03/28 03:58:27;;;;;;;;;;;;;;;18.69;40.26;99177.05;101867;1308;62143;-82
2023/03/28 04:00:56;;;;;;;;;;;;;;;18.68;40.25;99185.11;101794;1308;62941;-82
2023/03/28 04:03:22;;;;;;;;;;;;;;;18.68;40.26;99189.92;101817;1313;62131;-83
2023/03/28 04:06:11;;;;;;;;;;;;;;;18.68;40.13;99192.45;101852;1309;62730;-83
2023/03/28 04:08:37;;;;;;;;;;;;;;;18.67;40.04;99206.96;101310;1315;62242;-83
2023/03/28 04:11:02;;;;;;;;;;;;;;;18.67;40.03;99215.33;101288;1314;62475;-83
2023/03/28 04:13:28;;;;;;;;;;;;;;;18.67;40.05;99218.34;101131;1314;62169;-82
2023/03/28 04:15:54;;;;;;;;;;;;;;;18.66;40.05;99220.72;101179;1317;62846;-83
2023/03/28 04:18:19;;;;;;;;;;;;;;;18.66;40.03;99227.67;101259;1317;62745;-84
2023/03/28 04:20:46;;;;;;;;;;;;;;;18.67;40.01;99236.37;101171;1317;62102;-83
2023/03/28 04:23:11;;;;;;;;;;;;;;;18.67;39.98;99241.32;101218;1319;62274;-83
2023/03/28 04:25:40;;;;;;;;;;;;;;;18.67;39.95;99249.01;101289;1317;62347;-83
2023/03/28 04:28:08;;;;;;;;;;;;;;;18.68;39.83;99254.94;101275;1316;76345;-83
2023/03/28 04:30:34;;;;;;;;;;;;;;;18.70;39.70;99253.52;101203;1317;62526;-83
2023/03/28 04:33:00;;;;;;;;;;;;;;;18.72;39.70;99261.77;101238;1317;62166;-82
2023/03/28 04:35:28;;;;;;;;;;;;;;;18.74;39.57;99270.47;101066;1317;62299;-83
2023/03/28 04:37:56;;;;;;;;;;;;;;;18.77;39.55;99270.25;101101;1317;75144;-83
2023/03/28 04:40:26;;;;;;;;;;;;;;;18.80;39.45;99277.34;101171;1323;62175;-83
2023/03/28 04:42:54;;;;;;;;;;;;;;;18.82;39.30;99276.78;101202;1318;62230;-83
2023/03/28 04:45:20;;;;;;;;;;;;;;;18.83;39.28;99279.17;101373;1320;73498;-83
2023/03/28 04:47:47;;;;;;;;;;;;;;;18.84;39.12;99281.42;101647;1309;62304;-83
2023/03/28 04:50:15;;;;;;;;;;;;;;;18.83;39.01;99295.89;102037;1308;62156;-83
2023/03/28 04:52:44;;;;;;;;;;;;;;;18.84;38.93;99290.33;101957;1309;62287;-84
2023/03/28 04:55:09;;;;;;;;;;;;;;;18.84;38.84;99295.45;102219;1314;62116;-84
2023/03/28 04:57:37;;;;;;;;;;;;;;;18.83;38.76;99298.56;102742;1309;62334;-83
2023/03/28 05:00:06;;;;;;;;;;;;;;;18.83;38.63;99301.09;102486;1308;61992;-84
2023/03/28 05:02:31;;;;;;;;;;;;;;;18.83;38.65;99303.83;102357;1311;62175;-83
2023/03/28 05:04:57;;;;;;;;;;;;;;;18.83;38.53;99314.09;102092;1311;62237;-83
2023/03/28 05:07:22;;;;;;;;;;;;;;;18.83;38.41;99316.20;102036;1311;62235;-83
2023/03/28 05:09:48;;;;;;;;;;;;;;;18.83;38.41;99321.92;102067;1312;62249;-82
2023/03/28 05:12:14;;;;;;;;;;;;;;;18.85;38.34;99320.02;102266;1311;62312;-83
2023/03/28 05:14:40;;;;;;;;;;;;;;;18.86;38.29;99323.45;102254;1312;62591;-83
2023/03/28 05:17:07;;;;;;;;;;;;;;;18.89;38.16;99324.11;102657;1311;62359;-82
2023/03/28 05:19:33;;;;;;;;;;;;;;;18.92;38.15;99331.70;102319;1317;62186;-82
2023/03/28 05:21:58;;;;;;;;;;;;;;;18.96;38.15;99342.27;102676;1312;62286;-82
2023/03/28 05:24:26;;;;;;;;;;;;;;;19.00;38.08;99349.98;102468;1311;62292;-84
2023/03/28 05:26:52;;;;;;;;;;;;;;;19.01;37.88;99352.36;102039;1310;62544;-83
2023/03/28 05:29:18;;;;;;;;;;;;;;;19.02;37.77;99359.98;102822;1311;62223;-83
2023/03/28 05:31:44;;;;;;;;;;;;;;;19.02;37.81;99364.05;102679;1312;62165;-83
2023/03/28 05:34:10;;;;;;;;;;;;;;;19.04;37.60;99366.77;102759;1308;62313;-84
2023/03/28 05:36:36;;;;;;;;;;;;;;;19.05;37.65;99363.98;102655;1311;62155;-83
2023/03/28 05:39:04;;;;;;;;;;;;;;;19.06;37.60;99370.28;102431;1308;62168;-83
2023/03/28 05:41:29;;;;;;;;;;;;;;;19.09;37.55;99377.38;102438;1314;74685;-84
2023/03/28 05:43:55;;;;;;;;;;;;;;;19.12;37.44;99385.17;103198;1308;62239;-83
2023/03/28 05:46:21;;;;;;;;;;;;;;;19.14;37.44;99389.59;103031;1310;62102;-84
2023/03/28 05:48:46;;;;;;;;;;;;;;;19.16;37.45;99390.70;102907;1308;62191;-83
2023/03/28 05:51:12;;;;;;;;;;;;;;;19.15;37.32;99400.04;102862;1308;62353;-83
2023/03/28 05:53:38;;;;;;;;;;;;;;;19.13;37.26;99401.85;102956;1308;75445;-85
2023/03/28 05:56:04;;;;;;;;;;;;;;;19.09;37.20;99401.80;102732;1308;60303;-83
2023/03/28 05:58:30;;;;;;;;;;;;;;;19.05;37.11;99402.48;102844;1308;62255;-84
2023/03/28 06:00:56;;;;;;;;;;;;;;;19.00;37.22;99405.96;102599;1314;62313;-83
2023/03/28 06:03:22;;;;;;;;;;;;;;;18.94;37.04;99411.23;102863;1308;62815;-83
2023/03/28 06:05:48;;;;;;;;;;;;;;;18.91;37.15;99412.92;102764;1308;62047;-83
2023/03/28 06:08:13;;;;;;;;;;;;;;;18.90;37.04;99411.07;102774;1308;62123;-83
2023/03/28 06:10:40;;;;;;;;;;;;;;;18.89;36.99;99408.83;103025;1309;62258;-83
2023/03/28 06:13:07;;;;;;;;;;;;;;;18.88;36.97;99414.39;102989;1311;73672;-83
2023/03/28 06:15:33;;;;;;;;;;;;;;;18.88;36.91;99419.59;103137;1313;62300;-83
2023/03/28 06:17:59;;;;;;;;;;;;;;;18.90;36.75;99429.37;102669;1308;62493;-84
2023/03/28 06:20:25;;;;;;;;;;;;;;;18.93;36.82;99444.13;102741;1308;62159;-82
2023/03/28 06:22:52;;;;;;;;;;;;;;;18.94;36.67;99448.17;102928;1308;62170;-83
2023/03/28 06:25:17;;;;;;;;;;;;;;;18.94;36.57;99459.04;102750;1308;63121;-83
2023/03/28 06:27:43;;;;;;;;;;;;;;;18.93;36.37;99467.48;103227;1308;61383;-83
2023/03/28 06:30:09;;;;;;;;;;;;;;;18.91;36.53;99475.12;102900;1308;62010;-83
2023/03/28 06:32:35;;;;;;;;;;;;;;;18.89;36.44;99483.11;102789;1308;62026;-83
2023/03/28 06:35:02;;;;;;;;;;;;;;;18.88;36.47;99488.58;103302;1308;73741;-83
2023/03/28 06:37:28;;;;;;;;;;;;;;;18.87;36.40;99492.77;102728;1311;75334;-83
2023/03/28 06:39:54;;;;;;;;;;;;;;;18.85;36.37;99498.23;102660;1308;62179;-82
2023/03/28 06:42:20;;;;;;;;;;;;;;;18.84;36.24;99505.61;102970;1311;62124;-82
2023/03/28 06:44:46;;;;;;;;;;;;;;;18.84;36.25;99513.66;103107;1308;62228;-83
2023/03/28 06:47:12;;;;;;;;;;;;;;;18.84;36.19;99519.20;102993;1308;62101;-83
2023/03/28 06:49:38;;;;;;;;;;;;;;;18.83;36.04;99524.65;102938;1308;62149;-82
2023/03/28 06:52:03;;;;;;;;;;;;;;;18.79;36.18;99528.33;102950;1308;62224;-83
2023/03/28 06:54:29;;;;;;;;;;;;;;;18.78;36.26;99537.52;103188;1308;62117;-83
2023/03/28 06:56:54;;;;;;;;;;;;;;;18.78;36.18;99545.39;103066;1308;62230;-84
2023/03/28 06:59:20;;;;;;;;;;;;;;;18.76;36.14;99552.25;103291;1309;61293;-81
2023/03/28 07:01:45;;;;;;;;;;;;;;;18.75;36.18;99557.48;103384;1314;60261;-81
2023/03/28 07:04:11;;;;;;;;;;;;;;;18.72;36.15;99565.76;102758;1311;778257;-84
2023/03/28 07:06:37;;;;;;;;;;;;;;;18.70;36.14;99572.54;103409;1308;61828;-82
2023/03/28 07:09:02;;;;;;;;;;;;;;;18.67;36.08;99577.27;103367;1308;63884;-82
2023/03/28 07:11:28;;;;;;;;;;;;;;;18.64;36.16;99584.45;103373;1308;62220;-82
2023/03/28 07:13:53;;;;;;;;;;;;;;;18.63;36.22;99596.13;103327;1308;62123;-82
2023/03/28 07:16:19;;;;;;;;;;;;;;;18.62;36.21;99605.78;103383;1308;62283;-83
2023/03/28 07:18:45;;;;;;;;;;;;;;;18.63;36.28;99615.52;103500;1308;60197;-82
2023/03/28 07:21:12;;;;;;;;;;;;;;;18.63;36.24;99618.17;103116;1308;62107;-81
2023/03/28 07:23:38;;;;;;;;;;;;;;;18.63;36.30;99617.81;103097;1308;75393;-82
2023/03/28 07:26:07;;;;;;;;;;;;;;;18.65;36.30;99622.52;102921;1308;62176;-81
2023/03/28 07:28:33;;;;;;;;;;;;;;;18.69;36.39;99633.60;103189;1308;62030;-81
2023/03/28 07:31:03;;;;;;;;;;;;;;;18.72;36.35;99632.61;102926;1308;62223;-81
2023/03/28 07:33:29;;;;;;;;;;;;;;;18.75;36.34;99640.35;102741;1308;75422;-84
2023/03/28 07:35:55;;;;;;;;;;;;;;;18.77;36.36;99644.18;103193;1308;60288;-83
2023/03/28 07:38:23;;;;;;;;;;;;;;;18.80;36.38;99650.36;102923;1308;61298;-82
2023/03/28 07:40:48;;;;;;;;;;;;;;;18.81;36.38;99655.96;103339;1308;73793;-82
2023/03/28 07:43:14;;;;;;;;;;;;;;;18.81;36.31;99657.27;102913;1313;62136;-82
2023/03/28 07:45:40;;;;;;;;;;;;;;;18.79;36.30;99660.60;103124;1308;62344;-81
2023/03/28 07:48:05;;;;;;;;;;;;;;;18.78;36.40;99663.02;103441;1308;62170;-82
2023/03/28 07:50:31;;;;;;;;;;;;;;;18.77;36.29;99666.98;103394;1308;60617;-81
2023/03/28 07:52:57;;;;;;;;;;;;;;;18.75;36.38;99672.27;103233;1311;62177;-81
2023/03/28 07:55:27;;;;;;;;;;;;;;;18.75;36.49;99681.90;103398;1310;76208;-82
2023/03/28 07:57:53;;;;;;;;;;;;;;;18.76;36.70;99689.16;103429;1307;61282;-82
2023/03/28 08:00:21;;;;;;;;;;;;;;;18.76;36.66;99695.44;103694;1308;62050;-81
2023/03/28 08:02:46;;;;;;;;;;;;;;;18.75;36.73;99703.16;103653;1308;71620;-82
2023/03/28 08:05:12;;;;;;;;;;;;;;;18.74;36.71;99713.17;103786;1308;62305;-82
2023/03/28 08:07:40;;;;;;;;;;;;;;;18.71;36.78;99720.18;103771;1313;62711;-82
2023/03/28 08:10:07;;;;;;;;;;;;;;;18.72;37.12;99728.73;103800;1308;61913;-82
2023/03/28 08:12:32;;;;;;;;;;;;;;;18.73;37.24;99732.70;103636;1309;72592;-82
2023/03/28 08:14:58;;;;;;;;;;;;;;;18.75;37.40;99737.54;103606;1309;61184;-83
2023/03/28 08:17:25;;;;;;;;;;;;;;;18.74;37.37;99746.14;103540;1308;62167;-82
2023/03/28 08:19:50;;;;;;;;;;;;;;;18.74;37.44;99749.17;103552;1308;62170;-82
2023/03/28 08:22:16;;;;;;;;;;;;;;;18.75;37.46;99754.87;103493;1308;60961;-82
2023/03/28 08:24:42;;;;;;;;;;;;;;;18.74;37.43;99759.34;103634;1313;62146;-82
2023/03/28 08:27:08;;;;;;;;;;;;;;;18.75;37.39;99761.77;103639;1314;60903;-82
2023/03/28 08:29:34;;;;;;;;;;;;;;;18.78;37.35;99764.95;103570;1308;62905;-82
2023/03/28 08:32:00;;;;;;;;;;;;;;;18.80;37.23;99768.58;103683;1308;60362;-82
2023/03/28 08:34:25;;;;;;;;;;;;;;;18.77;37.24;99768.96;103979;1308;62116;-81
2023/03/28 08:36:51;;;;;;;;;;;;;;;18.71;37.15;99772.62;103831;1308;62223;-82
2023/03/28 08:39:17;;;;;;;;;;;;;;;18.66;37.19;99780.17;103620;1313;62180;-82
2023/03/28 08:41:57;;;;;;;;;;;;;;;18.57;37.03;99780.27;103363;1308;62229;-82
2023/03/28 08:44:31;;;;;;;;;;;;;;;18.52;37.17;99786.34;103393;1308;74026;-82
2023/03/28 08:46:59;;;;;;;;;;;;;;;18.56;37.27;99793.94;103387;1308;75648;-82
2023/03/28 08:49:25;;;;;;;;;;;;;;;18.61;37.30;99798.66;103451;1308;62156;-82
2023/03/28 08:51:51;;;;;;;;;;;;;;;18.66;37.33;99807.04;103027;1308;62251;-82
2023/03/28 08:54:22;;;;;;;;;;;;;;;18.69;37.29;99810.75;103223;1308;62123;-82
2023/03/28 08:56:48;;;;;;;;;;;;;;;18.69;37.30;99816.64;103316;1308;75319;-82
2023/03/28 08:59:15;;;;;;;;;;;;;;;18.67;37.20;99820.55;103323;1309;61553;-82
2023/03/28 09:01:42;;;;;;;;;;;;;;;18.62;37.30;99828.27;103231;1308;60625;-81
2023/03/28 09:04:19;;;;;;;;;;;;;;;18.60;37.23;99834.42;103162;1308;73684;-82
2023/03/28 09:06:45;;;;;;;;;;;;;;;18.61;37.28;99837.59;102933;1308;76449;-81
2023/03/28 09:09:10;;;;;;;;;;;;;;;18.61;37.44;99837.23;103023;1309;62251;-82
2023/03/28 09:11:46;;;;;;;;;;;;;;;18.61;37.44;99843.98;102974;1308;62318;-82
2023/03/28 09:14:20;;;;;;;;;;;;;;;18.59;37.24;99843.90;103123;1309;72442;-82
2023/03/28 09:16:58;;;;;;;;;;;;;;;18.61;37.47;99854.84;103143;1308;78226;-83
2023/03/28 09:19:29;;;;;;;;;;;;;;;18.65;37.44;99859.17;103062;1308;62593;-81
2023/03/28 09:21:55;;;;;;;;;;;;;;;18.67;37.35;99862.96;103079;1311;62239;-81
2023/03/28 09:24:23;;;;;;;;;;;;;;;18.67;37.51;99866.89;102862;1308;62159;-82
2023/03/28 09:26:56;;;;;;;;;;;;;;;18.70;37.69;99867.15;102952;1308;75481;-82
2023/03/28 09:29:23;;;;;;;;;;;;;;;18.76;37.78;99866.70;102767;1308;62152;-82
2023/03/28 09:31:50;;;;;;;;;;;;;;;18.81;37.88;99873.98;103004;1308;62267;-82
2023/03/28 09:34:26;;;;;;;;;;;;;;;18.80;37.77;99883.20;103143;1308;62143;-82
2023/03/28 09:36:52;;;;;;;;;;;;;;;18.74;37.63;99888.40;103460;1309;75465;-82
2023/03/28 09:39:23;;;;;;;;;;;;;;;18.70;37.65;99889.48;103650;1308;62190;-83
2023/03/28 09:42:08;;;;;;;;;;;;;;;18.64;37.50;99890.59;103046;1309;60765;-82
2023/03/28 09:44:40;;;;;;;;;;;;;;;18.59;37.44;99896.16;102805;1308;73588;-82
2023/03/28 09:47:09;;;;;;;;;;;;;;;18.55;37.49;99898.70;102782;1308;75617;-82
2023/03/28 09:49:35;;;;;;;;;;;;;;;18.53;37.40;99901.05;102881;1308;62204;-82
2023/03/28 09:52:00;;;;;;;;;;;;;;;18.49;37.36;99903.80;102806;1308;61666;-83
2023/03/28 09:54:27;;;;;;;;;;;;;;;18.47;37.44;99915.06;102952;1309;63804;-82
2023/03/28 09:56:53;;;;;;;;;;;;;;;18.40;37.30;99922.27;102747;1311;62255;-82
2023/03/28 09:59:25;;;;;;;;;;;;;;;18.32;37.26;99926.66;102718;1308;60829;-82
2023/03/28 10:01:51;;;;;;;;;;;;;;;18.24;37.26;99925.77;102662;1308;62970;-82
2023/03/28 10:04:31;;;;;;;;;;;;;;;18.19;37.23;99931.48;102443;1311;62222;-83
2023/03/28 10:07:29;;;;;;;;;;;;;;;18.11;37.24;99937.58;102313;1308;75367;-82
2023/03/28 10:09:55;;;;;;;;;;;;;;;18.09;37.25;99935.61;101995;1317;62111;-82
2023/03/28 10:12:32;;;;;;;;;;;;;;;18.11;37.17;99936.38;102014;1317;62345;-83
2023/03/28 10:14:58;;;;;;;;;;;;;;;18.14;37.05;99938.08;101852;1317;73417;-83
2023/03/28 10:17:28;;;;;;;;;;;;;;;18.18;37.07;99941.20;101708;1316;62189;-83
2023/03/28 10:20:04;;;;;;;;;;;;;;;18.22;37.06;99944.27;102169;1318;62201;-83
2023/03/28 10:22:30;;;;;;;;;;;;;;;18.26;36.91;99949.66;102026;1316;62336;-83
2023/03/28 10:24:56;;;;;;;;;;;;;;;18.30;36.88;99958.34;101944;1317;62281;-84
2023/03/28 10:27:22;;;;;;;;;;;;;;;18.34;36.80;99960.89;101736;1318;62294;-83
2023/03/28 10:29:50;;;;;;;;;;;;;;;18.37;36.83;99968.48;102047;1316;62184;-83
2023/03/28 10:32:36;;;;;;;;;;;;;;;18.39;36.65;99972.77;102192;1317;62130;-82
2023/03/28 10:35:02;;;;;;;;;;;;;;;18.40;36.68;99972.02;102146;1316;73550;-81
2023/03/28 10:37:30;;;;;;;;;;;;;;;18.39;36.71;99973.88;101689;1317;62524;-82
2023/03/28 10:39:56;;;;;;;;;;;;;;;18.38;36.72;99979.83;102021;1317;62011;-82
2023/03/28 10:42:22;;;;;;;;;;;;;;;18.39;36.68;99977.99;101859;1320;62272;-82
2023/03/28 10:44:57;;;;;;;;;;;;;;;18.40;36.67;99981.27;101844;1316;62293;-82
2023/03/28 10:47:23;;;;;;;;;;;;;;;18.42;36.59;99981.10;102504;1309;75205;-82
2023/03/28 10:49:50;;;;;;;;;;;;;;;18.44;36.61;99985.27;102688;1308;62267;-81
2023/03/28 10:52:34;;;;;;;;;;;;;;;18.46;36.54;99982.98;102645;1308;63012;-81
2023/03/28 10:55:12;;;;;;;;;;;;;;;18.50;36.56;99986.48;102443;1308;72635;-82
2023/03/28 10:57:56;;;;;;;;;;;;;;;18.51;36.47;99988.45;102619;1309;76374;-83
2023/03/28 11:00:22;;;;;;;;;;;;;;;18.54;36.51;99990.58;102635;1308;62289;-82
2023/03/28 11:02:54;;;;;;;;;;;;;;;18.56;36.43;99991.70;102692;1308;61983;-83
2023/03/28 11:05:40;;;;;;;;;;;;;;;18.58;36.17;99997.39;102425;1308;72622;-83
2023/03/28 11:08:18;;;;;;;;;;;;;;;18.60;36.28;99995.86;102368;1309;75364;-82
2023/03/28 11:10:52;;;;;;;;;;;;;;;18.62;36.25;99997.90;102534;1308;62095;-83
2023/03/28 11:13:22;;;;;;;;;;;;;;;18.63;36.21;100000.80;102778;1308;62104;-82
2023/03/28 11:15:53;;;;;;;;;;;;;;;18.65;36.13;100004.95;102322;1314;72880;-83
2023/03/28 11:18:30;;;;;;;;;;;;;;;18.67;36.17;100004.64;102376;1308;76601;-82
2023/03/28 11:21:16;;;;;;;;;;;;;;;18.69;36.04;100008.41;102281;1308;62250;-83
2023/03/28 11:23:57;;;;;;;;;;;;;;;18.70;36.07;100011.34;102347;1314;62248;-83
2023/03/28 11:26:25;;;;;;;;;;;;;;;18.72;36.05;100014.80;102212;1309;72588;-84
2023/03/28 11:28:58;;;;;;;;;;;;;;;18.72;36.00;100016.34;102228;1309;75270;-83
2023/03/28 11:31:27;;;;;;;;;;;;;;;18.74;36.04;100016.42;102060;1309;62146;-83
2023/03/28 11:33:57;;;;;;;;;;;;;;;18.75;36.03;100018.47;101989;1308;62152;-82
2023/03/28 11:36:31;;;;;;;;;;;;;;;18.76;36.14;100021.59;102067;1308;72742;-84
2023/03/28 11:39:04;;;;;;;;;;;;;;;18.77;36.03;100023.65;102228;1308;75249;-83
2023/03/28 11:41:30;;;;;;;;;;;;;;;18.78;36.10;100026.08;102136;1308;62162;-82
2023/03/28 11:43:58;;;;;;;;;;;;;;;18.80;36.09;100029.73;102247;1308;62457;-83
2023/03/28 11:46:26;;;;;;;;;;;;;;;18.81;36.16;100031.27;102196;1313;73234;-83
2023/03/28 11:48:53;;;;;;;;;;;;;;;18.81;36.17;100029.95;102348;1307;76031;-81
2023/03/28 11:51:22;;;;;;;;;;;;;;;18.82;36.17;100030.99;102742;1308;62161;-80
2023/03/28 11:53:50;;;;;;;;;;;;;;;18.81;36.28;100033.52;102850;1310;62145;-81
2023/03/28 11:56:22;;;;;;;;;;;;;;;18.82;36.32;100031.70;102896;1308;73777;-80
2023/03/28 11:58:49;;;;;;;;;;;;;;;18.83;36.26;100035.71;103018;1309;75527;-80
2023/03/28 12:01:16;;;;;;;;;;;;;;;18.83;36.35;100036.42;103496;1311;59835;-80
2023/03/28 12:03:57;;;;;;;;;;;;;;;18.84;36.40;100038.13;102684;1308;62129;-83
2023/03/28 12:06:32;;;;;;;;;;;;;;;18.85;36.45;100039.29;102395;1314;72403;-83
2023/03/28 12:09:15;;;;;;;;;;;;;;;18.86;36.42;100038.86;102416;1309;75267;-82
2023/03/28 12:11:43;;;;;;;;;;;;;;;18.86;36.43;100037.05;103779;1308;62156;-82
2023/03/28 12:14:15;;;;;;;;;;;;;;;18.87;36.38;100040.57;102704;1308;62094;-83
2023/03/28 12:16:44;;;;;;;;;;;;;;;18.88;36.48;100040.69;102515;1308;71946;-83
2023/03/28 12:19:13;;;;;;;;;;;;;;;18.90;36.39;100042.73;102480;1309;75164;-82
2023/03/28 12:21:38;;;;;;;;;;;;;;;18.90;36.41;100042.17;102189;1308;62973;-83
2023/03/28 12:24:16;;;;;;;;;;;;;;;18.91;36.37;100046.04;102517;1309;62258;-82
2023/03/28 12:26:42;;;;;;;;;;;;;;;18.91;36.38;100044.75;102316;1309;72474;-83
2023/03/28 12:29:12;;;;;;;;;;;;;;;18.92;36.38;100047.54;102192;1313;62321;-82
2023/03/28 12:31:49;;;;;;;;;;;;;;;18.92;36.31;100050.91;102380;1311;62150;-83
2023/03/28 12:34:15;;;;;;;;;;;;;;;18.93;36.28;100053.19;102363;1309;62245;-83
2023/03/28 12:36:47;;;;;;;;;;;;;;;18.93;36.18;100057.64;102304;1309;63734;-83
2023/03/28 12:39:20;;;;;;;;;;;;;;;18.93;36.32;100056.73;102235;1314;75383;-83
2023/03/28 12:41:46;;;;;;;;;;;;;;;18.94;36.29;100058.50;102466;1308;62076;-83
2023/03/28 12:44:16;;;;;;;;;;;;;;;18.94;36.30;100055.27;102222;1308;62321;-83